createdAt,value
2023-04-26T03:03:54.770Z,13.53
2023-04-26T03:06:24.318Z,13.56
2023-04-26T03:08:57.755Z,13.59
2023-04-26T03:11:28.426Z,13.58
2023-04-26T03:13:59.583Z,13.59
2023-04-26T03:16:41.186Z,13.60
2023-04-26T03:19:27.762Z,13.59
2023-04-26T03:21:56.820Z,13.59
2023-04-26T03:24:45.173Z,13.61
2023-04-26T03:27:14.668Z,13.60
2023-04-26T03:32:49.710Z,13.62
2023-04-26T03:35:36.647Z,13.60
2023-04-26T03:38:07.713Z,13.62
2023-04-26T03:40:46.340Z,13.63
2023-04-26T03:43:17.052Z,13.65
2023-04-26T03:45:56.009Z,13.65
2023-04-26T03:48:27.575Z,13.64
2023-04-26T03:50:58.264Z,13.61
2023-04-26T03:53:26.719Z,13.62
2023-04-26T03:56:11.332Z,13.60
2023-04-26T03:58:49.235Z,13.59
2023-04-26T04:01:40.690Z,13.59
2023-04-26T04:04:11.957Z,13.59
2023-04-26T04:06:44.630Z,13.59
2023-04-26T04:09:15.877Z,13.61
2023-04-26T04:14:41.181Z,13.63
2023-04-26T04:17:14.400Z,13.63
2023-04-26T04:19:43.397Z,13.65
2023-04-26T04:22:17.425Z,13.63
2023-04-26T04:24:48.721Z,13.67
2023-04-26T04:27:26.005Z,13.72
2023-04-26T04:39:53.251Z,13.74
2023-04-26T09:20:28.049Z,20.01
2023-04-26T09:23:06.095Z,20.16
2023-04-26T09:25:34.914Z,20.24
2023-04-26T09:28:06.015Z,20.30
2023-04-26T09:30:41.517Z,20.41
2023-04-26T09:33:12.135Z,20.48
2023-04-26T09:36:02.748Z,20.57
2023-04-26T09:38:32.432Z,20.63
2023-04-26T09:41:05.292Z,20.72
2023-04-26T09:43:39.286Z,20.80
2023-04-26T09:46:08.775Z,20.91
2023-04-26T09:48:37.458Z,21.01
2023-04-26T09:51:12.738Z,21.16
2023-04-26T09:53:45.973Z,21.28
2023-04-26T09:56:18.224Z,21.43
2023-04-26T09:58:59.896Z,21.50
2023-04-26T10:01:31.665Z,21.54
2023-04-26T10:06:36.854Z,21.63
2023-04-26T10:09:09.475Z,21.71
2023-04-26T10:11:40.496Z,21.77
2023-04-26T10:14:09.589Z,21.81
2023-04-26T10:16:41.669Z,21.85
2023-04-26T10:19:10.879Z,21.94
2023-04-26T10:21:43.374Z,22.01
2023-04-26T10:24:12.633Z,22.14
2023-04-26T10:26:54.910Z,22.20
2023-04-26T10:29:28.659Z,22.23
2023-04-26T10:32:12.492Z,22.24
2023-04-26T10:34:44.452Z,22.34
2023-04-26T10:37:19.059Z,22.47
2023-04-26T10:39:48.763Z,22.60
2023-04-26T10:42:27.851Z,22.70
2023-04-26T10:44:58.703Z,22.83
2023-04-26T10:47:33.910Z,22.90
2023-04-26T10:50:08.359Z,22.96
2023-04-26T10:52:43.597Z,23.06
2023-04-26T10:55:38.301Z,23.07
2023-04-26T10:58:30.476Z,23.06
2023-04-26T11:01:17.512Z,23.13
2023-04-26T11:04:07.267Z,23.18
2023-04-26T11:06:49.987Z,23.22
2023-04-26T11:09:42.812Z,23.28
2023-04-26T11:12:14.455Z,23.31
2023-04-26T11:14:44.410Z,23.34
2023-04-26T11:17:13.781Z,23.32
2023-04-26T11:19:43.540Z,23.34
2023-04-26T11:22:11.656Z,23.36
2023-04-26T11:24:42.756Z,23.43
2023-04-26T11:27:11.487Z,23.42
2023-04-26T11:29:40.456Z,23.45
2023-04-26T11:32:09.365Z,23.48
2023-04-26T11:34:40.627Z,23.53
2023-04-26T11:37:10.788Z,23.61
2023-04-26T11:39:40.646Z,23.64
2023-04-26T11:42:10.243Z,23.60
2023-04-26T11:44:38.808Z,23.64
2023-04-26T11:47:11.747Z,23.67
2023-04-26T11:49:40.189Z,23.63
2023-04-26T11:52:10.696Z,23.65
2023-04-26T11:54:42.789Z,23.68
2023-04-26T11:57:18.458Z,23.75
2023-04-26T11:59:47.705Z,23.85
2023-04-26T12:02:17.286Z,23.95
2023-04-26T12:04:45.984Z,24.00
2023-04-26T12:07:19.812Z,23.99
2023-04-26T12:09:50.455Z,24.06
2023-04-26T12:12:19.974Z,24.24
2023-04-26T12:14:48.961Z,24.36
2023-04-26T12:17:17.168Z,24.48
2023-04-26T12:19:46.055Z,24.54
2023-04-26T12:22:14.367Z,24.57
2023-04-26T12:24:43.390Z,24.64
2023-04-26T12:27:24.360Z,24.62
2023-04-26T12:29:52.920Z,24.61
2023-04-26T12:32:22.555Z,24.62
2023-04-26T12:34:51.397Z,24.64
2023-04-26T12:37:19.734Z,24.61
2023-04-26T12:39:48.452Z,24.53
2023-04-26T12:42:18.218Z,24.49
2023-04-26T12:44:46.560Z,24.40
2023-04-26T12:47:15.706Z,24.44
2023-04-26T12:49:46.155Z,24.39
2023-04-26T12:52:15.058Z,24.43
2023-04-26T12:54:49.212Z,24.50
2023-04-26T12:57:19.464Z,24.61
2023-04-26T12:59:50.641Z,24.75
2023-04-26T13:02:48.920Z,24.62
2023-04-26T13:06:01.165Z,24.61
2023-04-26T13:08:30.477Z,24.74
2023-04-26T13:11:00.981Z,24.78
2023-04-26T13:13:43.610Z,25.04
2023-04-26T13:16:13.980Z,25.32
2023-04-26T13:18:43.261Z,25.25
2023-04-26T13:21:14.851Z,24.98
2023-04-26T13:24:07.281Z,25.11
2023-04-26T13:35:36.950Z,26.59
2023-04-26T13:38:14.051Z,26.63
2023-04-26T13:41:00.760Z,26.67
2023-04-26T13:46:35.679Z,26.69
2023-04-26T13:49:07.910Z,26.76
2023-04-26T13:51:56.286Z,26.94
2023-04-26T13:54:30.261Z,27.06
2023-04-26T13:57:10.027Z,27.29
2023-04-26T16:19:41.747Z,21.93
